createdAt,value
2023-02-16T00:01:46.097Z,23.40
2023-02-16T00:04:20.186Z,17.92
2023-02-16T00:06:47.095Z,13.45
2023-02-16T00:09:14.104Z,13.82
2023-02-16T00:12:00.046Z,12.75
2023-02-16T00:14:27.838Z,13.98
2023-02-16T00:16:56.180Z,14.60
2023-02-16T00:19:24.661Z,14.68
2023-02-16T00:21:53.526Z,14.45
2023-02-16T00:24:20.881Z,15.82
2023-02-16T00:26:47.691Z,14.68
2023-02-16T00:29:17.028Z,17.08
2023-02-16T00:31:43.772Z,16.08
2023-02-16T00:34:30.120Z,14.55
2023-02-16T00:36:58.435Z,15.10
2023-02-16T00:39:25.523Z,15.05
2023-02-16T00:41:56.092Z,15.20
2023-02-16T00:44:39.816Z,15.77
2023-02-16T00:47:19.824Z,16.40
2023-02-16T00:49:48.312Z,18.10
2023-02-16T00:52:32.122Z,16.15
2023-02-16T00:55:00.154Z,14.63
2023-02-16T00:57:30.578Z,14.55
2023-02-16T01:00:06.260Z,14.93
2023-02-16T01:02:32.964Z,14.85
2023-02-16T01:04:59.594Z,15.73
2023-02-16T01:07:45.588Z,14.57
2023-02-16T01:10:30.865Z,14.93
2023-02-16T01:12:58.120Z,14.52
2023-02-16T01:15:26.162Z,13.73
2023-02-16T01:17:52.885Z,15.40
2023-02-16T01:20:24.360Z,14.50
2023-02-16T01:22:51.497Z,14.57
2023-02-16T01:25:18.200Z,14.70
2023-02-16T01:27:46.144Z,14.90
2023-02-16T01:30:24.089Z,16.58
2023-02-16T01:32:51.781Z,16.48
2023-02-16T01:35:30.626Z,16.73
2023-02-16T01:37:57.469Z,16.52
2023-02-16T01:40:33.225Z,16.90
2023-02-16T01:43:50.098Z,16.25
2023-02-16T01:46:45.960Z,15.02
2023-02-16T01:49:18.162Z,15.60
2023-02-16T01:52:17.319Z,15.30
2023-02-16T01:55:20.358Z,15.23
2023-02-16T01:57:51.165Z,15.38
2023-02-16T02:00:40.983Z,16.85
2023-02-16T02:03:45.785Z,15.20
2023-02-16T02:06:16.356Z,15.38
2023-02-16T02:08:49.151Z,15.73
2023-02-16T02:11:22.082Z,15.80
2023-02-16T02:14:09.276Z,16.35
2023-02-16T02:16:36.162Z,15.13
2023-02-16T02:19:03.752Z,15.50
2023-02-16T02:21:58.101Z,16.10
2023-02-16T02:25:01.617Z,15.55
2023-02-16T02:27:42.189Z,16.20
2023-02-16T02:30:38.289Z,21.02
2023-02-16T02:33:30.090Z,22.80
2023-02-16T02:36:19.832Z,19.00
2023-02-16T02:39:12.627Z,16.70
2023-02-16T02:42:06.463Z,17.08
2023-02-16T02:45:39.440Z,18.65
2023-02-16T02:48:06.732Z,22.02
2023-02-16T02:50:40.515Z,26.80
2023-02-16T02:53:15.239Z,20.73
2023-02-16T02:56:06.786Z,23.05
2023-02-16T02:59:11.830Z,23.83
2023-02-16T03:01:44.048Z,24.38
2023-02-16T03:04:13.611Z,25.25
2023-02-16T03:06:45.657Z,21.05
2023-02-16T03:09:14.734Z,18.48
2023-02-16T03:12:01.583Z,18.02
2023-02-16T03:14:50.463Z,17.40
2023-02-16T03:17:40.848Z,16.90
2023-02-16T03:20:30.746Z,16.65
2023-02-16T03:23:16.599Z,15.60
2023-02-16T03:26:03.194Z,16.35
2023-02-16T03:28:50.324Z,15.98
2023-02-16T03:31:28.824Z,17.00
2023-02-16T03:33:56.277Z,15.65
2023-02-16T03:36:24.581Z,16.67
2023-02-16T03:38:52.980Z,16.58
2023-02-16T03:41:19.625Z,16.13
2023-02-16T03:43:46.269Z,17.08
2023-02-16T03:46:13.153Z,17.33
2023-02-16T03:48:39.934Z,15.27
2023-02-16T03:51:06.761Z,17.15
2023-02-16T03:53:33.904Z,19.98
2023-02-16T03:56:00.696Z,23.02
2023-02-16T03:58:27.326Z,24.63
2023-02-16T04:00:54.745Z,23.02
2023-02-16T04:03:21.458Z,21.63
2023-02-16T04:05:48.089Z,19.58
2023-02-16T04:08:14.846Z,19.08
2023-02-16T04:10:41.606Z,18.35
2023-02-16T04:13:08.757Z,17.17
2023-02-16T04:15:35.422Z,20.20
2023-02-16T04:18:02.290Z,18.13
2023-02-16T04:20:32.044Z,17.42
2023-02-16T04:22:59.247Z,19.10
2023-02-16T04:25:26.670Z,18.95
2023-02-16T04:27:53.997Z,18.48
2023-02-16T04:30:23.879Z,17.25
2023-02-16T04:32:51.022Z,17.95
2023-02-16T04:35:17.914Z,16.55
2023-02-16T04:37:44.618Z,15.65
2023-02-16T04:40:16.014Z,16.67
2023-02-16T04:42:43.997Z,17.80
2023-02-16T04:45:11.900Z,18.25
2023-02-16T04:47:38.578Z,15.60
2023-02-16T04:50:06.199Z,16.27
2023-02-16T04:52:34.113Z,17.25
2023-02-16T04:55:00.788Z,17.05
2023-02-16T04:57:27.808Z,16.38
2023-02-16T04:59:54.451Z,16.92
2023-02-16T05:02:21.106Z,16.45
2023-02-16T05:04:47.959Z,15.32
2023-02-16T05:07:14.707Z,17.60
2023-02-16T05:09:41.415Z,15.93
2023-02-16T05:12:26.870Z,16.52
2023-02-16T05:14:53.522Z,17.17
2023-02-16T05:17:22.652Z,16.35
2023-02-16T05:19:54.900Z,16.80
2023-02-16T05:22:22.022Z,17.30
2023-02-16T05:24:49.383Z,18.80
2023-02-16T05:27:23.168Z,19.48
2023-02-16T05:29:49.786Z,20.52
2023-02-16T05:32:17.360Z,19.30
2023-02-16T05:34:47.160Z,20.02
2023-02-16T05:37:16.274Z,18.42
2023-02-16T05:39:43.388Z,19.02
2023-02-16T05:42:10.361Z,18.30
2023-02-16T05:44:37.766Z,17.40
2023-02-16T05:47:04.943Z,18.38
2023-02-16T05:49:31.630Z,17.40
2023-02-16T05:51:58.299Z,18.17
2023-02-16T05:54:25.078Z,17.77
2023-02-16T05:56:52.754Z,17.15
2023-02-16T05:59:19.707Z,19.00
2023-02-16T06:01:50.984Z,17.60
2023-02-16T06:04:19.723Z,18.27
2023-02-16T06:06:46.423Z,17.75
2023-02-16T06:09:13.151Z,17.77
2023-02-16T06:11:40.028Z,17.90
2023-02-16T06:14:24.935Z,18.02
2023-02-16T06:16:53.445Z,19.58
2023-02-16T06:19:20.424Z,18.80
2023-02-16T06:21:47.706Z,20.20
2023-02-16T06:24:15.060Z,20.40
2023-02-16T06:26:42.084Z,20.38
2023-02-16T06:29:09.291Z,22.77
2023-02-16T06:31:36.980Z,23.10
2023-02-16T06:34:04.649Z,22.83
2023-02-16T06:36:32.026Z,20.83
2023-02-16T06:38:58.776Z,19.95
2023-02-16T06:41:31.597Z,18.45
2023-02-16T06:44:18.892Z,18.75
2023-02-16T06:46:47.269Z,18.70
2023-02-16T06:49:20.154Z,18.58
2023-02-16T06:51:47.905Z,20.70
2023-02-16T06:54:15.894Z,20.42
2023-02-16T06:56:42.589Z,19.50
2023-02-16T06:59:11.137Z,19.00
2023-02-16T07:01:37.878Z,18.73
2023-02-16T07:04:04.649Z,18.33
2023-02-16T07:06:31.288Z,17.73
2023-02-16T07:08:59.485Z,18.23
2023-02-16T07:11:26.227Z,17.65
2023-02-16T07:13:52.920Z,17.95
2023-02-16T07:16:19.631Z,19.25
2023-02-16T07:18:47.277Z,20.52
2023-02-16T07:21:14.431Z,21.02
2023-02-16T07:23:41.407Z,19.73
2023-02-16T07:26:08.511Z,20.80
2023-02-16T07:28:35.197Z,18.45
2023-02-16T07:31:10.906Z,18.92
2023-02-16T07:33:37.808Z,18.10
2023-02-16T07:36:05.189Z,17.05
2023-02-16T07:38:31.846Z,18.77
2023-02-16T07:40:58.750Z,18.05
2023-02-16T07:43:25.841Z,18.02
2023-02-16T07:45:52.586Z,18.02
2023-02-16T07:48:20.317Z,16.00
2023-02-16T07:50:46.976Z,17.20
2023-02-16T07:53:13.688Z,16.83
2023-02-16T07:55:44.691Z,16.30
2023-02-16T07:58:12.045Z,17.02
2023-02-16T08:00:38.794Z,16.88
2023-02-16T08:03:05.873Z,19.40
2023-02-16T08:05:34.192Z,18.17
2023-02-16T08:08:00.820Z,18.05
2023-02-16T08:10:27.502Z,17.70
2023-02-16T08:12:54.227Z,17.90
2023-02-16T08:15:20.926Z,17.63
2023-02-16T08:17:47.931Z,17.58
2023-02-16T08:20:14.896Z,16.88
2023-02-16T08:22:41.586Z,16.23
2023-02-16T08:25:08.514Z,16.48
2023-02-16T08:27:35.762Z,16.85
2023-02-16T08:30:02.703Z,17.50
2023-02-16T08:32:29.587Z,18.05
2023-02-16T08:34:57.243Z,17.50
2023-02-16T08:37:24.758Z,18.38
2023-02-16T08:39:51.984Z,17.17
2023-02-16T08:42:18.664Z,16.80
2023-02-16T08:44:45.422Z,18.75
2023-02-16T08:47:12.146Z,15.95
2023-02-16T08:49:39.486Z,15.85
2023-02-16T08:52:06.476Z,16.85
2023-02-16T08:54:33.409Z,15.93
2023-02-16T08:57:02.689Z,17.55
2023-02-16T08:59:29.817Z,16.75
2023-02-16T09:01:58.017Z,16.80
2023-02-16T09:04:25.561Z,17.73
2023-02-16T09:06:53.294Z,15.75
2023-02-16T09:09:20.048Z,16.80
2023-02-16T09:11:46.906Z,15.52
2023-02-16T09:14:13.740Z,16.13
2023-02-16T09:16:45.391Z,15.70
2023-02-16T09:19:14.797Z,16.15
2023-02-16T09:21:41.923Z,15.75
2023-02-16T09:24:09.393Z,17.17
2023-02-16T09:26:38.885Z,16.20
2023-02-16T09:29:06.983Z,15.90
2023-02-16T09:31:36.985Z,17.45
2023-02-16T09:34:07.684Z,17.10
2023-02-16T09:36:34.687Z,15.80
2023-02-16T09:39:02.253Z,16.45
2023-02-16T09:41:36.748Z,17.08
2023-02-16T09:44:15.593Z,18.27
2023-02-16T09:46:42.809Z,14.95
2023-02-16T09:49:34.754Z,15.38
2023-02-16T09:52:18.967Z,16.02
2023-02-16T09:54:59.365Z,15.98
2023-02-16T09:57:55.389Z,15.70
2023-02-16T10:00:34.169Z,16.02
2023-02-16T10:03:28.970Z,15.65
2023-02-16T10:06:06.725Z,15.05
2023-02-16T10:08:42.209Z,16.05
2023-02-16T10:11:46.599Z,16.30
2023-02-16T10:14:44.079Z,15.93
2023-02-16T10:17:23.875Z,15.68
2023-02-16T10:19:59.522Z,16.42
2023-02-16T10:22:49.387Z,15.15
2023-02-16T10:25:32.283Z,14.70
2023-02-16T10:28:17.993Z,14.60
2023-02-16T10:31:05.638Z,15.32
2023-02-16T10:33:36.223Z,15.68
2023-02-16T10:36:15.165Z,14.82
2023-02-16T10:38:55.236Z,16.27
2023-02-16T10:41:40.334Z,15.98
2023-02-16T10:44:41.038Z,16.60
2023-02-16T10:47:22.344Z,16.02
2023-02-16T10:49:49.838Z,15.80
2023-02-16T10:52:16.981Z,16.15
2023-02-16T10:54:43.654Z,15.30
2023-02-16T10:57:27.232Z,14.77
2023-02-16T10:59:57.004Z,15.45
2023-02-16T11:02:30.304Z,15.27
2023-02-16T11:04:58.423Z,14.63
2023-02-16T11:07:28.209Z,14.65
2023-02-16T11:09:58.169Z,16.35
2023-02-16T11:12:36.135Z,15.45
2023-02-16T11:15:16.615Z,16.40
2023-02-16T11:18:06.016Z,15.73
2023-02-16T11:20:54.600Z,14.02
2023-02-16T11:23:30.085Z,15.60
2023-02-16T11:26:11.707Z,14.27
2023-02-16T11:28:47.659Z,14.70
2023-02-16T11:31:33.265Z,15.27
2023-02-16T11:34:21.262Z,13.52
2023-02-16T11:36:48.299Z,15.23
2023-02-16T11:39:21.157Z,15.07
2023-02-16T11:41:51.908Z,15.15
2023-02-16T11:44:43.328Z,14.50
2023-02-16T11:47:25.218Z,15.90
2023-02-16T11:50:19.330Z,15.55
2023-02-16T11:52:49.529Z,15.23
2023-02-16T11:55:34.092Z,16.83
2023-02-16T11:58:21.485Z,16.42
2023-02-16T12:00:51.038Z,16.92
2023-02-16T12:03:31.338Z,15.80
2023-02-16T12:06:14.830Z,14.68
2023-02-16T12:08:41.424Z,15.25
2023-02-16T12:11:17.084Z,14.43
2023-02-16T12:14:15.964Z,15.63
2023-02-16T12:17:17.954Z,14.95
2023-02-16T12:19:56.364Z,15.82
2023-02-16T12:22:39.945Z,15.30
2023-02-16T12:25:42.315Z,15.43
2023-02-16T12:28:23.480Z,15.75
2023-02-16T12:30:53.324Z,15.90
2023-02-16T12:33:32.288Z,16.23
2023-02-16T12:36:08.234Z,16.77
2023-02-16T12:38:38.272Z,16.02
2023-02-16T12:41:23.474Z,16.27
2023-02-16T12:44:03.661Z,15.63
2023-02-16T12:46:52.657Z,16.42
2023-02-16T12:49:25.024Z,16.13
2023-02-16T12:52:26.480Z,14.93
2023-02-16T12:54:57.503Z,15.18
2023-02-16T12:57:28.094Z,15.50
2023-02-16T13:00:04.385Z,16.08
2023-02-16T13:02:43.391Z,14.65
2023-02-16T13:05:22.095Z,15.68
2023-02-16T13:07:56.537Z,14.88
2023-02-16T13:10:24.695Z,16.38
2023-02-16T13:12:56.325Z,16.70
2023-02-16T13:15:25.689Z,16.63
2023-02-16T13:18:01.812Z,15.48
2023-02-16T13:20:29.426Z,16.60
2023-02-16T13:23:17.786Z,15.98
2023-02-16T13:26:33.582Z,16.90
2023-02-16T13:29:34.445Z,17.27
2023-02-16T13:32:33.591Z,17.98
2023-02-16T13:35:37.006Z,17.73
2023-02-16T13:38:14.940Z,18.08
2023-02-16T13:41:17.966Z,19.63
2023-02-16T13:44:17.076Z,17.33
2023-02-16T13:46:50.085Z,18.98
2023-02-16T13:49:40.224Z,18.88
2023-02-16T13:52:08.759Z,18.00
2023-02-16T13:54:43.484Z,17.40
2023-02-16T13:57:15.057Z,20.13
2023-02-16T13:59:56.545Z,19.77
2023-02-16T14:02:54.262Z,19.92
2023-02-16T14:05:31.314Z,19.80
2023-02-16T14:08:10.839Z,18.30
2023-02-16T14:11:08.294Z,18.00
2023-02-16T14:13:37.974Z,18.48
2023-02-16T14:16:10.246Z,18.67
2023-02-16T14:18:54.717Z,18.92
2023-02-16T14:21:47.700Z,19.08
2023-02-16T14:24:37.631Z,17.85
2023-02-16T14:27:11.684Z,18.55
2023-02-16T14:29:56.531Z,19.75
2023-02-16T14:32:39.287Z,19.58
2023-02-16T14:35:15.655Z,19.33
2023-02-16T14:37:56.772Z,18.45
2023-02-16T14:41:00.388Z,17.63
2023-02-16T14:43:43.356Z,18.38
2023-02-16T14:46:29.107Z,18.35
2023-02-16T14:49:10.775Z,17.45
2023-02-16T14:51:50.790Z,18.80
2023-02-16T14:54:41.681Z,18.48
2023-02-16T14:57:36.392Z,18.90
2023-02-16T15:00:21.155Z,17.42
2023-02-16T15:03:00.062Z,18.10
2023-02-16T15:05:29.807Z,17.95
2023-02-16T15:08:09.472Z,18.30
2023-02-16T15:10:39.222Z,17.73
2023-02-16T15:13:06.395Z,19.45
2023-02-16T15:15:48.519Z,17.95
2023-02-16T15:18:32.753Z,18.05
2023-02-16T15:20:59.720Z,17.80
2023-02-16T15:23:29.358Z,20.02
2023-02-16T15:26:03.909Z,20.65
2023-02-16T15:28:33.957Z,19.70
2023-02-16T15:31:06.962Z,18.95
2023-02-16T15:33:40.400Z,19.70
2023-02-16T15:36:14.137Z,18.83
2023-02-16T15:38:53.888Z,18.45
2023-02-16T15:41:30.121Z,20.15
2023-02-16T15:43:57.854Z,18.85
2023-02-16T15:46:37.693Z,18.60
2023-02-16T15:49:21.319Z,19.02
2023-02-16T15:51:49.199Z,18.90
2023-02-16T15:54:24.846Z,19.15
2023-02-16T15:56:54.137Z,18.83
2023-02-16T15:59:35.814Z,20.05
2023-02-16T16:02:14.607Z,20.90
2023-02-16T16:04:54.931Z,18.77
2023-02-16T16:07:29.228Z,17.63
2023-02-16T16:09:57.677Z,20.10
2023-02-16T16:12:25.061Z,19.98
2023-02-16T16:15:17.458Z,19.63
2023-02-16T16:17:44.351Z,17.70
2023-02-16T16:20:27.520Z,20.15
2023-02-16T16:23:04.418Z,18.58
2023-02-16T16:25:39.483Z,18.35
2023-02-16T16:28:10.470Z,19.10
2023-02-16T16:30:43.619Z,18.73
2023-02-16T16:33:16.057Z,19.27
2023-02-16T16:35:50.286Z,17.38
2023-02-16T16:38:40.012Z,19.58
2023-02-16T16:41:07.043Z,18.33
2023-02-16T16:43:51.644Z,18.48
2023-02-16T16:46:27.147Z,19.25
2023-02-16T16:48:56.848Z,17.90
2023-02-16T16:51:31.348Z,20.27
2023-02-16T16:54:06.868Z,19.30
2023-02-16T16:56:39.374Z,20.85
2023-02-16T16:59:06.624Z,18.95
2023-02-16T17:01:33.970Z,19.27
2023-02-16T17:04:01.043Z,18.92
2023-02-16T17:06:27.792Z,19.15
2023-02-16T17:08:57.500Z,19.35
2023-02-16T17:11:27.645Z,19.25
2023-02-16T17:13:55.655Z,22.88
2023-02-16T17:16:36.263Z,20.38
2023-02-16T17:19:03.550Z,19.48
2023-02-16T17:21:30.228Z,18.00
2023-02-16T17:23:56.927Z,19.63
2023-02-16T17:26:23.647Z,19.30
2023-02-16T17:28:50.928Z,19.27
2023-02-16T17:31:17.712Z,19.13
2023-02-16T17:33:44.738Z,18.85
2023-02-16T17:36:14.309Z,19.60
2023-02-16T17:38:41.568Z,22.90
2023-02-16T17:41:17.140Z,21.30
2023-02-16T17:43:43.767Z,19.20
2023-02-16T17:46:11.092Z,18.10
2023-02-16T17:48:37.845Z,18.42
2023-02-16T17:51:05.453Z,18.63
2023-02-16T17:53:32.123Z,19.15
2023-02-16T17:55:58.841Z,17.75
2023-02-16T17:58:25.561Z,18.92
2023-02-16T18:00:52.786Z,19.23
2023-02-16T18:03:19.507Z,18.55
2023-02-16T18:05:46.839Z,17.05
2023-02-16T18:08:13.564Z,18.17
2023-02-16T18:10:43.463Z,18.58
2023-02-16T18:13:11.616Z,18.88
2023-02-16T18:15:40.591Z,18.13
2023-02-16T18:18:07.916Z,19.20
2023-02-16T18:20:34.694Z,19.40
2023-02-16T18:23:01.364Z,18.95
2023-02-16T18:25:28.046Z,19.08
2023-02-16T18:27:54.689Z,17.40
2023-02-16T18:30:21.763Z,19.38
2023-02-16T18:32:48.528Z,18.98
2023-02-16T18:35:15.545Z,17.73
2023-02-16T18:37:42.877Z,17.75
2023-02-16T18:40:12.260Z,17.33
2023-02-16T18:42:38.956Z,17.90
2023-02-16T18:45:06.546Z,17.90
2023-02-16T18:47:33.531Z,17.48
2023-02-16T18:50:00.261Z,19.80
2023-02-16T18:52:26.942Z,19.60
2023-02-16T18:54:53.657Z,18.70
2023-02-16T18:57:21.770Z,18.98
2023-02-16T18:59:49.301Z,17.98
2023-02-16T19:02:16.053Z,17.42
2023-02-16T19:04:42.858Z,16.45
2023-02-16T19:07:09.525Z,14.63
2023-02-16T19:09:36.175Z,14.52
2023-02-16T19:12:03.003Z,14.20
2023-02-16T19:14:29.679Z,13.40
2023-02-16T19:16:56.628Z,13.57
2023-02-16T19:19:23.357Z,13.35
2023-02-16T19:21:49.990Z,12.98
2023-02-16T19:24:16.642Z,13.25
2023-02-16T19:26:43.378Z,13.30
2023-02-16T19:29:10.197Z,12.18
2023-02-16T19:31:37.022Z,12.60
2023-02-16T19:34:03.769Z,12.50
2023-02-16T19:36:33.004Z,12.15
2023-02-16T19:39:00.649Z,12.07
2023-02-16T19:41:31.014Z,11.48
2023-02-16T19:43:57.901Z,10.70
2023-02-16T19:46:25.461Z,10.82
2023-02-16T19:48:54.292Z,10.65
2023-02-16T19:51:21.313Z,10.75
2023-02-16T19:53:48.083Z,10.18
2023-02-16T19:56:17.314Z,11.07
2023-02-16T19:58:44.014Z,11.52
2023-02-16T20:01:23.165Z,11.00
2023-02-16T20:03:51.271Z,10.90
2023-02-16T20:06:24.677Z,10.55
2023-02-16T20:08:52.348Z,10.65
2023-02-16T20:11:21.534Z,9.77
2023-02-16T20:13:48.902Z,10.23
2023-02-16T20:16:16.772Z,10.00
2023-02-16T20:18:43.780Z,10.45
2023-02-16T20:21:22.229Z,11.18
2023-02-16T20:23:50.379Z,10.02
2023-02-16T20:26:25.629Z,10.55
2023-02-16T20:28:53.239Z,10.93
2023-02-16T20:31:24.103Z,10.68
2023-02-16T20:33:50.988Z,10.95
2023-02-16T20:36:17.840Z,10.77
2023-02-16T20:38:45.125Z,10.90
2023-02-16T20:41:12.202Z,11.95
2023-02-16T20:43:39.339Z,10.73
2023-02-16T20:46:08.523Z,10.75
2023-02-16T20:48:36.050Z,10.95
2023-02-16T20:51:05.657Z,11.50
2023-02-16T20:53:33.562Z,10.77
2023-02-16T20:56:14.567Z,10.50
2023-02-16T20:58:43.221Z,11.20
2023-02-16T21:01:22.837Z,11.77
2023-02-16T21:03:50.940Z,10.65
2023-02-16T21:06:17.660Z,10.55
2023-02-16T21:08:44.806Z,10.40
2023-02-16T21:11:11.733Z,11.27
2023-02-16T21:13:39.407Z,10.98
2023-02-16T21:16:07.316Z,10.63
2023-02-16T21:18:37.704Z,10.43
2023-02-16T21:21:05.530Z,9.73
2023-02-16T21:23:32.279Z,10.45
2023-02-16T21:26:00.292Z,10.90
2023-02-16T21:28:28.161Z,10.43
2023-02-16T21:30:56.035Z,11.27
2023-02-16T21:33:22.900Z,11.15
2023-02-16T21:35:49.538Z,10.90
2023-02-16T21:38:17.596Z,10.60
2023-02-16T21:41:03.018Z,11.48
2023-02-16T21:43:29.868Z,11.63
2023-02-16T21:46:01.037Z,11.27
2023-02-16T21:48:47.242Z,12.05
2023-02-16T21:51:26.444Z,11.43
2023-02-16T21:53:53.480Z,10.20
2023-02-16T21:56:52.843Z,11.05
2023-02-16T21:59:21.709Z,11.32
2023-02-16T22:01:53.043Z,11.65
2023-02-16T22:04:21.717Z,11.40
2023-02-16T22:06:50.380Z,11.40
2023-02-16T22:09:19.864Z,11.68
2023-02-16T22:11:47.475Z,12.18
2023-02-16T22:14:14.659Z,11.48
2023-02-16T22:16:43.596Z,11.85
2023-02-16T22:19:15.288Z,11.75
2023-02-16T22:21:43.233Z,11.50
2023-02-16T22:24:15.132Z,13.20
2023-02-16T22:26:42.476Z,11.65
2023-02-16T22:29:10.387Z,12.27
2023-02-16T22:31:37.732Z,12.23
2023-02-16T22:34:12.080Z,11.18
2023-02-16T22:36:40.013Z,12.52
2023-02-16T22:39:07.208Z,12.55
2023-02-16T22:41:34.642Z,12.07
2023-02-16T22:44:01.430Z,12.18
2023-02-16T22:46:29.347Z,11.13
2023-02-16T22:49:00.844Z,12.35
2023-02-16T22:51:29.162Z,12.32
2023-02-16T22:53:59.853Z,12.20
2023-02-16T22:56:26.908Z,12.27
2023-02-16T22:58:57.072Z,11.98
2023-02-16T23:01:25.034Z,11.98
2023-02-16T23:03:56.543Z,12.38
2023-02-16T23:06:26.407Z,11.25
2023-02-16T23:08:56.172Z,11.50
2023-02-16T23:11:24.063Z,12.55
2023-02-16T23:13:50.817Z,12.85
2023-02-16T23:16:21.314Z,11.27
2023-02-16T23:18:48.696Z,12.27
2023-02-16T23:21:19.539Z,10.82
2023-02-16T23:23:47.443Z,11.82
2023-02-16T23:26:14.265Z,12.48
2023-02-16T23:28:42.297Z,11.55
2023-02-16T23:31:09.873Z,11.27
2023-02-16T23:33:36.577Z,11.18
2023-02-16T23:36:03.564Z,11.32
2023-02-16T23:38:30.372Z,12.38
2023-02-16T23:40:58.803Z,10.65
2023-02-16T23:43:26.090Z,10.65
2023-02-16T23:45:53.766Z,10.77
2023-02-16T23:48:20.756Z,10.73
2023-02-16T23:50:47.549Z,10.32
2023-02-16T23:53:14.172Z,11.00
2023-02-16T23:55:40.821Z,11.95
2023-02-16T23:58:07.891Z,11.25
